Kezdőlap
METAR-TAF:

METAR-TAF

Repülőterek :

Windham Airport

Willimantic, Connecticut, Amerikai Egyesült Államok

földrajzi szélesség: 41-44-31N, földrajzi hosszúság: 072-11-01W, magasság: 75 m

Jelenlegi meteorológiai megfigyelések

A jelentés 18 perccel ezelõtt készült, 06:11 UTC
Szélcsend
Hőmérséklet 17°C
Páratartalom 94%
Légköri nyomás 1023 hPa
Látótávolság: 14.5 km
Borult 900 lábon

METAR: KIJD 260611Z AUTO 00000KT 9SM OVC009 17/16 A3021 RMK AO2 T01720161

Idő: 02:29 (06:29 UTC)


TAF: hiányzik

Meteorológiai megfigyelések és előrejelzések több, mint 4000 repülőtéren (METAR és TAF jelentéseket).

A térképen piros és sárga pontok jelzik az elérhető meteorológiai állomásokat.

Mozgassa az egeret a pont fölött, hogy megjelenjen az állomás neve.

Azután kattintson az időjárási megfigyelések és előrejelzések megtekintéséhez.

A térkép megváltoztatása: kattintson a fekete keresztel jelölt zöld gombra ráközelítéshez, a vonallal jelölt zöld gombra távolításhoz, vagy a zöld nyilakra a szomszédos térképek eléréséhez.


METAR-TAF: